sensor_id;sensor_type;location;lat;lon;timestamp;temperature;humidity
73643;DHT22;61938;48.652;9.292;2023-07-09T00:01:51;19.90;99.90
73643;DHT22;61938;48.652;9.292;2023-07-09T00:04:17;19.90;99.90
73643;DHT22;61938;48.652;9.292;2023-07-09T00:06:43;19.90;99.90
73643;DHT22;61938;48.652;9.292;2023-07-09T00:09:13;19.80;99.90
73643;DHT22;61938;48.652;9.292;2023-07-09T00:11:40;19.80;99.90
73643;DHT22;61938;48.652;9.292;2023-07-09T00:14:06;19.80;99.90
73643;DHT22;61938;48.652;9.292;2023-07-09T00:16:31;19.70;99.90
73643;DHT22;61938;48.652;9.292;2023-07-09T00:18:57;19.70;99.90
73643;DHT22;61938;48.652;9.292;2023-07-09T00:21:23;19.60;99.90
73643;DHT22;61938;48.652;9.292;2023-07-09T00:23:49;19.50;99.90
73643;DHT22;61938;48.652;9.292;2023-07-09T00:26:15;19.50;99.90
73643;DHT22;61938;48.652;9.292;2023-07-09T00:28:41;19.50;99.90
73643;DHT22;61938;48.652;9.292;2023-07-09T00:31:13;19.50;99.90
73643;DHT22;61938;48.652;9.292;2023-07-09T00:33:40;19.40;99.90
73643;DHT22;61938;48.652;9.292;2023-07-09T00:36:26;19.40;99.90
73643;DHT22;61938;48.652;9.292;2023-07-09T00:38:52;19.20;99.90
73643;DHT22;61938;48.652;9.292;2023-07-09T00:41:19;19.20;99.90
73643;DHT22;61938;48.652;9.292;2023-07-09T00:43:46;19.20;99.90
73643;DHT22;61938;48.652;9.292;2023-07-09T00:49:08;19.20;99.90
73643;DHT22;61938;48.652;9.292;2023-07-09T00:51:37;19.30;99.90
73643;DHT22;61938;48.652;9.292;2023-07-09T00:54:28;19.20;99.90
73643;DHT22;61938;48.652;9.292;2023-07-09T00:57:02;19.30;99.90
73643;DHT22;61938;48.652;9.292;2023-07-09T00:59:30;19.20;99.90
73643;DHT22;61938;48.652;9.292;2023-07-09T01:01:57;19.10;99.90
73643;DHT22;61938;48.652;9.292;2023-07-09T01:04:26;19.10;99.90
73643;DHT22;61938;48.652;9.292;2023-07-09T01:06:54;19.00;99.90
73643;DHT22;61938;48.652;9.292;2023-07-09T01:09:21;18.90;99.90
73643;DHT22;61938;48.652;9.292;2023-07-09T01:11:47;18.80;99.90
73643;DHT22;61938;48.652;9.292;2023-07-09T01:14:15;18.80;99.90
73643;DHT22;61938;48.652;9.292;2023-07-09T01:16:48;18.80;99.90
73643;DHT22;61938;48.652;9.292;2023-07-09T01:19:15;18.80;99.90
73643;DHT22;61938;48.652;9.292;2023-07-09T01:21:42;18.70;99.90
73643;DHT22;61938;48.652;9.292;2023-07-09T01:24:13;18.60;99.90
73643;DHT22;61938;48.652;9.292;2023-07-09T01:26:39;18.60;99.90
73643;DHT22;61938;48.652;9.292;2023-07-09T01:29:05;18.60;99.90
73643;DHT22;61938;48.652;9.292;2023-07-09T01:31:31;18.50;99.90
73643;DHT22;61938;48.652;9.292;2023-07-09T01:33:57;18.50;99.90
73643;DHT22;61938;48.652;9.292;2023-07-09T01:36:24;18.50;99.90
73643;DHT22;61938;48.652;9.292;2023-07-09T01:38:51;18.40;99.90
73643;DHT22;61938;48.652;9.292;2023-07-09T01:41:18;18.30;99.90
73643;DHT22;61938;48.652;9.292;2023-07-09T01:43:46;18.30;99.90
73643;DHT22;61938;48.652;9.292;2023-07-09T01:46:12;18.30;99.90
73643;DHT22;61938;48.652;9.292;2023-07-09T01:48:38;18.30;99.90
73643;DHT22;61938;48.652;9.292;2023-07-09T01:51:09;18.20;99.90
73643;DHT22;61938;48.652;9.292;2023-07-09T01:53:35;18.20;99.90
73643;DHT22;61938;48.652;9.292;2023-07-09T01:56:03;18.10;99.90
73643;DHT22;61938;48.652;9.292;2023-07-09T01:58:28;18.10;99.90
73643;DHT22;61938;48.652;9.292;2023-07-09T02:00:57;18.10;99.90
73643;DHT22;61938;48.652;9.292;2023-07-09T02:03:22;18.10;99.90
73643;DHT22;61938;48.652;9.292;2023-07-09T02:05:52;18.10;99.90
73643;DHT22;61938;48.652;9.292;2023-07-09T02:08:18;18.10;99.90
73643;DHT22;61938;48.652;9.292;2023-07-09T02:10:44;18.10;99.90
73643;DHT22;61938;48.652;9.292;2023-07-09T02:13:10;18.10;99.90
73643;DHT22;61938;48.652;9.292;2023-07-09T02:15:36;18.00;99.90
73643;DHT22;61938;48.652;9.292;2023-07-09T02:18:02;18.00;99.90
73643;DHT22;61938;48.652;9.292;2023-07-09T02:20:28;18.00;99.90
73643;DHT22;61938;48.652;9.292;2023-07-09T02:22:53;18.00;99.90
73643;DHT22;61938;48.652;9.292;2023-07-09T02:25:19;18.00;99.90
73643;DHT22;61938;48.652;9.292;2023-07-09T02:27:44;18.00;99.90
73643;DHT22;61938;48.652;9.292;2023-07-09T02:30:10;18.00;99.90
73643;DHT22;61938;48.652;9.292;2023-07-09T02:32:36;18.00;99.90
73643;DHT22;61938;48.652;9.292;2023-07-09T02:35:02;17.90;99.90
73643;DHT22;61938;48.652;9.292;2023-07-09T02:37:28;17.90;99.90
73643;DHT22;61938;48.652;9.292;2023-07-09T02:39:53;17.90;99.90
73643;DHT22;61938;48.652;9.292;2023-07-09T02:42:21;17.90;99.90
73643;DHT22;61938;48.652;9.292;2023-07-09T02:44:47;18.00;99.90
73643;DHT22;61938;48.652;9.292;2023-07-09T02:47:13;18.00;99.90
73643;DHT22;61938;48.652;9.292;2023-07-09T02:49:39;17.90;99.90
73643;DHT22;61938;48.652;9.292;2023-07-09T02:52:05;17.90;99.90
73643;DHT22;61938;48.652;9.292;2023-07-09T02:54:31;17.90;99.90
73643;DHT22;61938;48.652;9.292;2023-07-09T02:56:56;17.90;99.90
73643;DHT22;61938;48.652;9.292;2023-07-09T02:59:22;17.80;99.90
73643;DHT22;61938;48.652;9.292;2023-07-09T03:01:49;17.70;99.90
73643;DHT22;61938;48.652;9.292;2023-07-09T03:04:15;17.70;99.90
73643;DHT22;61938;48.652;9.292;2023-07-09T03:06:41;17.70;99.90
73643;DHT22;61938;48.652;9.292;2023-07-09T03:09:06;17.60;99.90
73643;DHT22;61938;48.652;9.292;2023-07-09T03:11:34;17.60;99.90
73643;DHT22;61938;48.652;9.292;2023-07-09T03:14:00;17.60;99.90
73643;DHT22;61938;48.652;9.292;2023-07-09T03:16:28;17.60;99.90
73643;DHT22;61938;48.652;9.292;2023-07-09T03:18:54;17.60;99.90
73643;DHT22;61938;48.652;9.292;2023-07-09T03:21:22;17.60;99.90
73643;DHT22;61938;48.652;9.292;2023-07-09T03:23:48;17.60;99.90
73643;DHT22;61938;48.652;9.292;2023-07-09T03:26:13;17.50;99.90
73643;DHT22;61938;48.652;9.292;2023-07-09T03:28:40;17.50;99.90
73643;DHT22;61938;48.652;9.292;2023-07-09T03:31:06;17.50;99.90
73643;DHT22;61938;48.652;9.292;2023-07-09T03:33:31;17.60;99.90
73643;DHT22;61938;48.652;9.292;2023-07-09T03:35:56;17.50;99.90
73643;DHT22;61938;48.652;9.292;2023-07-09T03:38:22;17.50;99.90
73643;DHT22;61938;48.652;9.292;2023-07-09T03:40:54;17.50;99.90
73643;DHT22;61938;48.652;9.292;2023-07-09T03:43:21;17.50;99.90
73643;DHT22;61938;48.652;9.292;2023-07-09T03:45:47;17.60;99.90
73643;DHT22;61938;48.652;9.292;2023-07-09T03:48:14;17.60;99.90
73643;DHT22;61938;48.652;9.292;2023-07-09T03:50:42;17.60;99.90
73643;DHT22;61938;48.652;9.292;2023-07-09T03:53:08;17.60;99.90
73643;DHT22;61938;48.652;9.292;2023-07-09T03:55:34;17.60;99.90
73643;DHT22;61938;48.652;9.292;2023-07-09T03:57:59;17.60;99.90
73643;DHT22;61938;48.652;9.292;2023-07-09T04:00:25;17.60;99.90
73643;DHT22;61938;48.652;9.292;2023-07-09T04:02:51;17.60;99.90
73643;DHT22;61938;48.652;9.292;2023-07-09T04:05:17;18.00;99.90
73643;DHT22;61938;48.652;9.292;2023-07-09T04:07:43;17.60;99.90
73643;DHT22;61938;48.652;9.292;2023-07-09T04:10:08;17.60;99.90
73643;DHT22;61938;48.652;9.292;2023-07-09T04:12:34;17.60;99.90
73643;DHT22;61938;48.652;9.292;2023-07-09T04:15:02;17.60;99.90
73643;DHT22;61938;48.652;9.292;2023-07-09T04:17:28;17.60;99.90
73643;DHT22;61938;48.652;9.292;2023-07-09T04:19:53;17.70;99.90
73643;DHT22;61938;48.652;9.292;2023-07-09T04:22:19;17.70;99.90
73643;DHT22;61938;48.652;9.292;2023-07-09T04:24:44;17.70;99.90
73643;DHT22;61938;48.652;9.292;2023-07-09T04:27:11;17.70;99.90
73643;DHT22;61938;48.652;9.292;2023-07-09T04:29:39;17.80;99.90
73643;DHT22;61938;48.652;9.292;2023-07-09T04:32:08;17.80;99.90
73643;DHT22;61938;48.652;9.292;2023-07-09T04:34:36;17.90;99.90
73643;DHT22;61938;48.652;9.292;2023-07-09T04:37:06;18.00;99.90
73643;DHT22;61938;48.652;9.292;2023-07-09T04:39:31;18.10;99.90
73643;DHT22;61938;48.652;9.292;2023-07-09T04:41:57;18.10;99.90
73643;DHT22;61938;48.652;9.292;2023-07-09T04:44:22;18.20;99.90
73643;DHT22;61938;48.652;9.292;2023-07-09T04:46:48;18.30;99.90
73643;DHT22;61938;48.652;9.292;2023-07-09T04:49:14;18.30;99.90
73643;DHT22;61938;48.652;9.292;2023-07-09T04:51:40;18.40;99.90
73643;DHT22;61938;48.652;9.292;2023-07-09T04:54:05;18.50;99.90
73643;DHT22;61938;48.652;9.292;2023-07-09T04:56:31;18.60;99.90
73643;DHT22;61938;48.652;9.292;2023-07-09T04:58:56;18.80;99.90
73643;DHT22;61938;48.652;9.292;2023-07-09T05:01:22;18.90;99.90
73643;DHT22;61938;48.652;9.292;2023-07-09T05:03:48;19.00;99.90
73643;DHT22;61938;48.652;9.292;2023-07-09T05:06:14;19.10;99.90
73643;DHT22;61938;48.652;9.292;2023-07-09T05:08:39;19.20;99.90
73643;DHT22;61938;48.652;9.292;2023-07-09T05:11:06;19.40;99.90
73643;DHT22;61938;48.652;9.292;2023-07-09T05:13:31;19.50;99.90
73643;DHT22;61938;48.652;9.292;2023-07-09T05:15:57;19.60;99.90
73643;DHT22;61938;48.652;9.292;2023-07-09T05:18:22;19.70;99.90
73643;DHT22;61938;48.652;9.292;2023-07-09T05:20:49;19.80;99.90
73643;DHT22;61938;48.652;9.292;2023-07-09T05:23:14;19.90;99.90
73643;DHT22;61938;48.652;9.292;2023-07-09T05:25:40;19.90;99.90
73643;DHT22;61938;48.652;9.292;2023-07-09T05:28:06;19.90;99.90
73643;DHT22;61938;48.652;9.292;2023-07-09T05:30:32;19.90;99.90
73643;DHT22;61938;48.652;9.292;2023-07-09T05:32:57;20.10;99.90
73643;DHT22;61938;48.652;9.292;2023-07-09T05:35:25;20.10;99.90
73643;DHT22;61938;48.652;9.292;2023-07-09T05:37:52;20.10;99.90
73643;DHT22;61938;48.652;9.292;2023-07-09T05:40:18;20.10;99.90
73643;DHT22;61938;48.652;9.292;2023-07-09T05:42:43;20.10;99.90
73643;DHT22;61938;48.652;9.292;2023-07-09T05:45:09;20.00;99.90
73643;DHT22;61938;48.652;9.292;2023-07-09T05:47:35;20.10;99.90
73643;DHT22;61938;48.652;9.292;2023-07-09T05:50:01;20.00;99.90
73643;DHT22;61938;48.652;9.292;2023-07-09T05:52:28;20.00;99.90
73643;DHT22;61938;48.652;9.292;2023-07-09T05:54:55;20.00;99.90
73643;DHT22;61938;48.652;9.292;2023-07-09T05:57:20;20.00;99.90
73643;DHT22;61938;48.652;9.292;2023-07-09T05:59:46;20.20;99.90
73643;DHT22;61938;48.652;9.292;2023-07-09T06:02:13;20.30;99.90
73643;DHT22;61938;48.652;9.292;2023-07-09T06:04:39;20.40;99.90
73643;DHT22;61938;48.652;9.292;2023-07-09T06:07:05;20.70;99.90
73643;DHT22;61938;48.652;9.292;2023-07-09T06:09:30;20.80;99.90
73643;DHT22;61938;48.652;9.292;2023-07-09T06:11:57;20.90;99.90
73643;DHT22;61938;48.652;9.292;2023-07-09T06:14:22;21.10;99.90
73643;DHT22;61938;48.652;9.292;2023-07-09T06:16:48;21.30;99.90
73643;DHT22;61938;48.652;9.292;2023-07-09T06:19:14;21.50;99.90
73643;DHT22;61938;48.652;9.292;2023-07-09T06:21:40;21.60;99.90
73643;DHT22;61938;48.652;9.292;2023-07-09T06:24:06;21.70;99.90
73643;DHT22;61938;48.652;9.292;2023-07-09T06:26:32;21.80;99.90
73643;DHT22;61938;48.652;9.292;2023-07-09T06:28:58;22.00;99.90
73643;DHT22;61938;48.652;9.292;2023-07-09T06:31:24;22.20;99.90
73643;DHT22;61938;48.652;9.292;2023-07-09T06:33:50;22.40;99.90
73643;DHT22;61938;48.652;9.292;2023-07-09T06:36:17;22.70;99.90
73643;DHT22;61938;48.652;9.292;2023-07-09T06:38:43;23.00;99.90
73643;DHT22;61938;48.652;9.292;2023-07-09T06:41:09;23.20;99.90
73643;DHT22;61938;48.652;9.292;2023-07-09T06:43:35;23.40;99.90
73643;DHT22;61938;48.652;9.292;2023-07-09T06:46:04;23.50;99.90
73643;DHT22;61938;48.652;9.292;2023-07-09T06:48:30;23.50;99.90
73643;DHT22;61938;48.652;9.292;2023-07-09T06:50:57;23.70;99.90
73643;DHT22;61938;48.652;9.292;2023-07-09T06:53:24;23.80;99.90
73643;DHT22;61938;48.652;9.292;2023-07-09T06:55:50;24.00;99.90
73643;DHT22;61938;48.652;9.292;2023-07-09T06:58:16;24.00;99.90
73643;DHT22;61938;48.652;9.292;2023-07-09T07:00:42;24.20;99.90
73643;DHT22;61938;48.652;9.292;2023-07-09T07:03:09;24.30;99.90
73643;DHT22;61938;48.652;9.292;2023-07-09T07:05:34;24.60;99.90
73643;DHT22;61938;48.652;9.292;2023-07-09T07:08:01;24.60;99.90
73643;DHT22;61938;48.652;9.292;2023-07-09T07:10:28;24.80;99.90
73643;DHT22;61938;48.652;9.292;2023-07-09T07:12:54;24.90;99.90
73643;DHT22;61938;48.652;9.292;2023-07-09T07:15:20;25.10;99.90
73643;DHT22;61938;48.652;9.292;2023-07-09T07:17:45;25.10;99.90
73643;DHT22;61938;48.652;9.292;2023-07-09T07:20:12;25.10;99.90
73643;DHT22;61938;48.652;9.292;2023-07-09T07:22:38;25.30;99.90
73643;DHT22;61938;48.652;9.292;2023-07-09T07:25:06;25.60;99.90
73643;DHT22;61938;48.652;9.292;2023-07-09T07:27:33;25.60;99.90
73643;DHT22;61938;48.652;9.292;2023-07-09T07:29:58;25.80;99.90
73643;DHT22;61938;48.652;9.292;2023-07-09T07:32:24;25.90;99.90
73643;DHT22;61938;48.652;9.292;2023-07-09T07:34:50;26.00;99.90
73643;DHT22;61938;48.652;9.292;2023-07-09T07:37:18;26.20;99.90
73643;DHT22;61938;48.652;9.292;2023-07-09T07:39:46;26.50;99.90
73643;DHT22;61938;48.652;9.292;2023-07-09T07:42:12;26.80;99.90
73643;DHT22;61938;48.652;9.292;2023-07-09T07:44:37;26.90;99.90
73643;DHT22;61938;48.652;9.292;2023-07-09T07:47:04;27.20;99.90
73643;DHT22;61938;48.652;9.292;2023-07-09T07:49:29;27.50;99.90
73643;DHT22;61938;48.652;9.292;2023-07-09T07:51:55;27.60;99.90
73643;DHT22;61938;48.652;9.292;2023-07-09T07:54:21;27.70;99.90
73643;DHT22;61938;48.652;9.292;2023-07-09T07:56:46;27.80;99.90
73643;DHT22;61938;48.652;9.292;2023-07-09T07:59:12;28.00;99.90
73643;DHT22;61938;48.652;9.292;2023-07-09T08:01:37;28.30;99.90
73643;DHT22;61938;48.652;9.292;2023-07-09T08:04:03;28.80;99.90
73643;DHT22;61938;48.652;9.292;2023-07-09T08:06:28;29.10;99.90
73643;DHT22;61938;48.652;9.292;2023-07-09T08:08:56;29.30;99.90
73643;DHT22;61938;48.652;9.292;2023-07-09T08:11:22;29.20;99.90
73643;DHT22;61938;48.652;9.292;2023-07-09T08:13:47;29.50;99.90
73643;DHT22;61938;48.652;9.292;2023-07-09T08:16:13;29.40;99.90
73643;DHT22;61938;48.652;9.292;2023-07-09T08:18:39;29.90;99.90
73643;DHT22;61938;48.652;9.292;2023-07-09T08:21:04;30.40;99.90
73643;DHT22;61938;48.652;9.292;2023-07-09T08:23:30;30.40;99.90
73643;DHT22;61938;48.652;9.292;2023-07-09T08:25:57;30.40;99.90
73643;DHT22;61938;48.652;9.292;2023-07-09T08:28:23;30.30;99.20
73643;DHT22;61938;48.652;9.292;2023-07-09T08:30:52;30.80;97.90
73643;DHT22;61938;48.652;9.292;2023-07-09T08:33:18;32.20;98.30
73643;DHT22;61938;48.652;9.292;2023-07-09T08:35:43;30.90;96.60
73643;DHT22;61938;48.652;9.292;2023-07-09T08:38:09;31.40;97.70
73643;DHT22;61938;48.652;9.292;2023-07-09T08:40:43;31.20;95.70
73643;DHT22;61938;48.652;9.292;2023-07-09T08:48:46;31.30;93.40
73643;DHT22;61938;48.652;9.292;2023-07-09T08:51:34;31.50;90.50
73643;DHT22;61938;48.652;9.292;2023-07-09T08:54:02;31.80;90.50
73643;DHT22;61938;48.652;9.292;2023-07-09T08:56:31;32.30;90.00
73643;DHT22;61938;48.652;9.292;2023-07-09T08:58:59;32.60;87.40
73643;DHT22;61938;48.652;9.292;2023-07-09T09:01:33;32.40;83.70
73643;DHT22;61938;48.652;9.292;2023-07-09T09:04:19;32.50;87.70
73643;DHT22;61938;48.652;9.292;2023-07-09T09:06:50;32.40;85.20
73643;DHT22;61938;48.652;9.292;2023-07-09T09:09:33;32.50;82.50
73643;DHT22;61938;48.652;9.292;2023-07-09T09:12:17;32.60;85.00
73643;DHT22;61938;48.652;9.292;2023-07-09T09:14:52;33.00;82.40
73643;DHT22;61938;48.652;9.292;2023-07-09T09:17:21;33.10;78.30
73643;DHT22;61938;48.652;9.292;2023-07-09T09:19:53;33.20;77.70
73643;DHT22;61938;48.652;9.292;2023-07-09T09:22:25;33.60;79.40
73643;DHT22;61938;48.652;9.292;2023-07-09T09:25:03;33.00;77.30
73643;DHT22;61938;48.652;9.292;2023-07-09T09:27:29;33.20;74.90
73643;DHT22;61938;48.652;9.292;2023-07-09T09:29:54;33.40;76.70
73643;DHT22;61938;48.652;9.292;2023-07-09T09:32:27;33.90;76.10
73643;DHT22;61938;48.652;9.292;2023-07-09T09:34:53;34.20;75.40
73643;DHT22;61938;48.652;9.292;2023-07-09T09:37:30;34.40;72.20
73643;DHT22;61938;48.652;9.292;2023-07-09T09:39:58;34.90;70.80
73643;DHT22;61938;48.652;9.292;2023-07-09T09:42:24;34.80;67.60
73643;DHT22;61938;48.652;9.292;2023-07-09T09:44:53;34.60;68.10
73643;DHT22;61938;48.652;9.292;2023-07-09T09:47:19;34.80;66.30
73643;DHT22;61938;48.652;9.292;2023-07-09T09:49:44;35.10;67.90
73643;DHT22;61938;48.652;9.292;2023-07-09T09:52:19;35.00;64.40
73643;DHT22;61938;48.652;9.292;2023-07-09T09:54:52;34.80;67.20
73643;DHT22;61938;48.652;9.292;2023-07-09T09:57:22;34.80;65.90
73643;DHT22;61938;48.652;9.292;2023-07-09T09:59:47;35.00;65.00
73643;DHT22;61938;48.652;9.292;2023-07-09T10:02:24;35.40;67.10
73643;DHT22;61938;48.652;9.292;2023-07-09T10:04:51;35.40;60.50
73643;DHT22;61938;48.652;9.292;2023-07-09T10:07:38;35.40;64.80
73643;DHT22;61938;48.652;9.292;2023-07-09T10:10:12;35.30;60.30
73643;DHT22;61938;48.652;9.292;2023-07-09T10:18:04;34.90;60.30
73643;DHT22;61938;48.652;9.292;2023-07-09T10:21:08;35.00;58.30
73643;DHT22;61938;48.652;9.292;2023-07-09T10:23:57;34.90;58.10
73643;DHT22;61938;48.652;9.292;2023-07-09T10:29:07;35.20;58.80
73643;DHT22;61938;48.652;9.292;2023-07-09T10:34:33;36.40;57.00
73643;DHT22;61938;48.652;9.292;2023-07-09T10:37:18;36.10;53.60
73643;DHT22;61938;48.652;9.292;2023-07-09T10:39:48;36.00;56.80
73643;DHT22;61938;48.652;9.292;2023-07-09T10:42:32;35.80;54.10
73643;DHT22;61938;48.652;9.292;2023-07-09T10:45:11;35.70;55.30
73643;DHT22;61938;48.652;9.292;2023-07-09T10:47:44;35.50;55.10
73643;DHT22;61938;48.652;9.292;2023-07-09T10:50:30;35.60;54.80
73643;DHT22;61938;48.652;9.292;2023-07-09T10:53:04;35.80;53.90
73643;DHT22;61938;48.652;9.292;2023-07-09T10:55:52;35.80;56.90
73643;DHT22;61938;48.652;9.292;2023-07-09T11:00:48;36.30;55.40
73643;DHT22;61938;48.652;9.292;2023-07-09T11:03:18;36.50;54.40
73643;DHT22;61938;48.652;9.292;2023-07-09T11:05:44;36.70;51.50
73643;DHT22;61938;48.652;9.292;2023-07-09T11:08:35;36.70;51.90
73643;DHT22;61938;48.652;9.292;2023-07-09T11:11:05;36.70;50.80
73643;DHT22;61938;48.652;9.292;2023-07-09T11:13:50;36.60;50.30
73643;DHT22;61938;48.652;9.292;2023-07-09T11:16:32;36.60;49.60
73643;DHT22;61938;48.652;9.292;2023-07-09T11:19:03;36.60;50.30
73643;DHT22;61938;48.652;9.292;2023-07-09T11:21:29;37.00;55.10
73643;DHT22;61938;48.652;9.292;2023-07-09T11:23:57;37.10;51.70
73643;DHT22;61938;48.652;9.292;2023-07-09T11:26:31;37.20;52.90
73643;DHT22;61938;48.652;9.292;2023-07-09T11:31:39;37.10;51.00
73643;DHT22;61938;48.652;9.292;2023-07-09T11:39:29;36.80;52.10
73643;DHT22;61938;48.652;9.292;2023-07-09T11:41:56;36.80;50.50
73643;DHT22;61938;48.652;9.292;2023-07-09T11:44:31;36.60;51.60
73643;DHT22;61938;48.652;9.292;2023-07-09T11:47:20;36.50;53.30
73643;DHT22;61938;48.652;9.292;2023-07-09T11:52:25;36.80;52.10
73643;DHT22;61938;48.652;9.292;2023-07-09T11:54:52;36.80;49.70
73643;DHT22;61938;48.652;9.292;2023-07-09T11:57:19;36.70;52.50
73643;DHT22;61938;48.652;9.292;2023-07-09T11:59:45;36.70;50.30
73643;DHT22;61938;48.652;9.292;2023-07-09T12:02:19;36.70;52.90
73643;DHT22;61938;48.652;9.292;2023-07-09T12:04:47;37.00;51.30
73643;DHT22;61938;48.652;9.292;2023-07-09T12:07:14;37.50;53.50
73643;DHT22;61938;48.652;9.292;2023-07-09T12:09:46;37.80;52.80
73643;DHT22;61938;48.652;9.292;2023-07-09T12:12:25;37.70;51.00
73643;DHT22;61938;48.652;9.292;2023-07-09T12:14:51;37.50;50.20
73643;DHT22;61938;48.652;9.292;2023-07-09T12:17:18;37.90;49.90
73643;DHT22;61938;48.652;9.292;2023-07-09T12:19:43;38.00;48.10
73643;DHT22;61938;48.652;9.292;2023-07-09T12:22:20;38.20;48.00
73643;DHT22;61938;48.652;9.292;2023-07-09T12:24:48;38.00;46.70
73643;DHT22;61938;48.652;9.292;2023-07-09T12:27:23;37.80;45.60
73643;DHT22;61938;48.652;9.292;2023-07-09T12:29:53;37.50;50.30
73643;DHT22;61938;48.652;9.292;2023-07-09T12:32:19;37.30;48.00
73643;DHT22;61938;48.652;9.292;2023-07-09T12:34:53;38.70;49.60
73643;DHT22;61938;48.652;9.292;2023-07-09T12:37:20;36.90;50.30
73643;DHT22;61938;48.652;9.292;2023-07-09T12:39:49;36.70;48.70
73643;DHT22;61938;48.652;9.292;2023-07-09T12:42:19;36.40;47.70
73643;DHT22;61938;48.652;9.292;2023-07-09T12:44:46;36.40;46.60
73643;DHT22;61938;48.652;9.292;2023-07-09T12:47:14;36.80;49.50
73643;DHT22;61938;48.652;9.292;2023-07-09T12:49:42;37.00;48.60
73643;DHT22;61938;48.652;9.292;2023-07-09T12:52:20;37.20;47.40
73643;DHT22;61938;48.652;9.292;2023-07-09T12:55:00;37.60;47.00
73643;DHT22;61938;48.652;9.292;2023-07-09T12:57:26;37.50;48.60
73643;DHT22;61938;48.652;9.292;2023-07-09T12:59:54;37.50;46.70
73643;DHT22;61938;48.652;9.292;2023-07-09T13:02:25;37.50;48.80
73643;DHT22;61938;48.652;9.292;2023-07-09T13:05:03;37.70;48.60
73643;DHT22;61938;48.652;9.292;2023-07-09T13:07:32;37.40;47.60
73643;DHT22;61938;48.652;9.292;2023-07-09T13:10:14;37.50;48.70
73643;DHT22;61938;48.652;9.292;2023-07-09T13:12:40;37.80;49.10
73643;DHT22;61938;48.652;9.292;2023-07-09T13:15:29;37.90;48.10
73643;DHT22;61938;48.652;9.292;2023-07-09T13:18:03;37.80;45.90
73643;DHT22;61938;48.652;9.292;2023-07-09T13:20:30;37.80;47.70
73643;DHT22;61938;48.652;9.292;2023-07-09T13:22:57;37.40;46.00
73643;DHT22;61938;48.652;9.292;2023-07-09T13:25:23;37.10;47.70
73643;DHT22;61938;48.652;9.292;2023-07-09T13:27:49;37.30;49.50
73643;DHT22;61938;48.652;9.292;2023-07-09T13:30:14;37.60;48.30
73643;DHT22;61938;48.652;9.292;2023-07-09T13:32:40;37.90;46.30
73643;DHT22;61938;48.652;9.292;2023-07-09T13:35:17;37.90;48.30
73643;DHT22;61938;48.652;9.292;2023-07-09T13:37:44;37.90;46.00
73643;DHT22;61938;48.652;9.292;2023-07-09T13:40:13;37.60;47.40
73643;DHT22;61938;48.652;9.292;2023-07-09T13:42:39;37.50;44.60
73643;DHT22;61938;48.652;9.292;2023-07-09T13:45:18;37.40;46.00
73643;DHT22;61938;48.652;9.292;2023-07-09T13:47:44;37.40;45.90
73643;DHT22;61938;48.652;9.292;2023-07-09T13:50:09;37.20;45.50
73643;DHT22;61938;48.652;9.292;2023-07-09T13:52:35;37.10;46.00
73643;DHT22;61938;48.652;9.292;2023-07-09T13:55:01;36.80;45.50
73643;DHT22;61938;48.652;9.292;2023-07-09T13:57:26;36.70;45.40
73643;DHT22;61938;48.652;9.292;2023-07-09T13:59:52;36.30;45.80
73643;DHT22;61938;48.652;9.292;2023-07-09T14:02:24;36.00;46.70
73643;DHT22;61938;48.652;9.292;2023-07-09T14:04:51;35.50;49.10
73643;DHT22;61938;48.652;9.292;2023-07-09T14:07:26;35.20;48.60
73643;DHT22;61938;48.652;9.292;2023-07-09T14:09:52;35.40;47.80
73643;DHT22;61938;48.652;9.292;2023-07-09T14:12:17;35.70;47.50
73643;DHT22;61938;48.652;9.292;2023-07-09T14:14:43;36.00;48.20
73643;DHT22;61938;48.652;9.292;2023-07-09T14:17:12;36.30;47.10
73643;DHT22;61938;48.652;9.292;2023-07-09T14:19:37;36.40;45.80
73643;DHT22;61938;48.652;9.292;2023-07-09T14:24:44;36.50;46.40
73643;DHT22;61938;48.652;9.292;2023-07-09T14:27:10;36.30;45.90
73643;DHT22;61938;48.652;9.292;2023-07-09T14:29:35;35.90;46.60
73643;DHT22;61938;48.652;9.292;2023-07-09T14:32:02;36.00;46.70
73643;DHT22;61938;48.652;9.292;2023-07-09T14:34:30;36.00;47.00
73643;DHT22;61938;48.652;9.292;2023-07-09T14:36:58;35.90;46.50
73643;DHT22;61938;48.652;9.292;2023-07-09T14:39:25;35.60;46.70
73643;DHT22;61938;48.652;9.292;2023-07-09T14:41:51;35.40;46.60
73643;DHT22;61938;48.652;9.292;2023-07-09T14:44:25;35.40;47.10
73643;DHT22;61938;48.652;9.292;2023-07-09T14:46:52;35.40;46.90
73643;DHT22;61938;48.652;9.292;2023-07-09T14:49:18;35.50;46.50
73643;DHT22;61938;48.652;9.292;2023-07-09T14:51:44;35.70;48.20
73643;DHT22;61938;48.652;9.292;2023-07-09T14:54:20;35.60;46.90
73643;DHT22;61938;48.652;9.292;2023-07-09T14:56:46;35.50;45.90
73643;DHT22;61938;48.652;9.292;2023-07-09T14:59:12;35.60;46.70
73643;DHT22;61938;48.652;9.292;2023-07-09T15:01:37;35.60;45.80
73643;DHT22;61938;48.652;9.292;2023-07-09T15:06:51;35.60;46.00
73643;DHT22;61938;48.652;9.292;2023-07-09T15:09:19;35.60;45.60
73643;DHT22;61938;48.652;9.292;2023-07-09T15:11:46;35.60;45.30
73643;DHT22;61938;48.652;9.292;2023-07-09T15:14:14;35.40;45.10
73643;DHT22;61938;48.652;9.292;2023-07-09T15:16:40;35.50;45.30
73643;DHT22;61938;48.652;9.292;2023-07-09T15:19:16;35.40;44.60
73643;DHT22;61938;48.652;9.292;2023-07-09T15:21:42;35.60;46.80
73643;DHT22;61938;48.652;9.292;2023-07-09T15:24:25;35.60;44.40
73643;DHT22;61938;48.652;9.292;2023-07-09T15:26:53;35.60;43.50
73643;DHT22;61938;48.652;9.292;2023-07-09T15:29:20;35.60;45.70
73643;DHT22;61938;48.652;9.292;2023-07-09T15:31:45;35.60;44.20
73643;DHT22;61938;48.652;9.292;2023-07-09T15:34:11;35.60;43.90
73643;DHT22;61938;48.652;9.292;2023-07-09T15:36:44;35.50;43.40
73643;DHT22;61938;48.652;9.292;2023-07-09T15:39:10;35.40;43.50
73643;DHT22;61938;48.652;9.292;2023-07-09T15:41:36;35.20;44.80
73643;DHT22;61938;48.652;9.292;2023-07-09T15:44:01;35.00;44.20
73643;DHT22;61938;48.652;9.292;2023-07-09T15:46:27;35.00;45.20
73643;DHT22;61938;48.652;9.292;2023-07-09T15:48:54;34.90;44.80
73643;DHT22;61938;48.652;9.292;2023-07-09T15:51:20;34.80;45.40
73643;DHT22;61938;48.652;9.292;2023-07-09T15:53:45;34.70;45.40
73643;DHT22;61938;48.652;9.292;2023-07-09T15:56:24;34.70;44.20
73643;DHT22;61938;48.652;9.292;2023-07-09T15:58:52;34.50;44.10
73643;DHT22;61938;48.652;9.292;2023-07-09T16:01:18;34.50;45.80
73643;DHT22;61938;48.652;9.292;2023-07-09T16:03:48;34.50;44.50
73643;DHT22;61938;48.652;9.292;2023-07-09T16:06:14;34.30;44.80
73643;DHT22;61938;48.652;9.292;2023-07-09T16:08:40;34.30;44.10
73643;DHT22;61938;48.652;9.292;2023-07-09T16:11:24;34.20;43.90
73643;DHT22;61938;48.652;9.292;2023-07-09T16:13:51;34.20;44.40
73643;DHT22;61938;48.652;9.292;2023-07-09T16:16:20;33.60;44.10